sensor_id;sensor_type;location;lat;lon;timestamp;P1;durP1;ratioP1;P2;durP2;ratioP2
32697;SDS011;19087;51.062;3.754;2023-08-07T00:00:10;0.20;;;0.20;;
32697;SDS011;19087;51.062;3.754;2023-08-07T00:02:40;0.20;;;0.20;;
32697;SDS011;19087;51.062;3.754;2023-08-07T00:05:08;0.20;;;0.20;;
32697;SDS011;19087;51.062;3.754;2023-08-07T00:07:35;0.20;;;0.20;;
32697;SDS011;19087;51.062;3.754;2023-08-07T00:12:39;0.28;;;0.28;;
32697;SDS011;19087;51.062;3.754;2023-08-07T00:15:08;0.20;;;0.20;;
32697;SDS011;19087;51.062;3.754;2023-08-07T00:17:39;0.20;;;0.20;;
32697;SDS011;19087;51.062;3.754;2023-08-07T00:20:08;0.20;;;0.20;;
32697;SDS011;19087;51.062;3.754;2023-08-07T00:22:37;0.20;;;0.20;;
32697;SDS011;19087;51.062;3.754;2023-08-07T00:25:11;0.20;;;0.20;;
32697;SDS011;19087;51.062;3.754;2023-08-07T00:27:37;0.30;;;0.30;;
32697;SDS011;19087;51.062;3.754;2023-08-07T00:30:06;0.20;;;0.20;;
32697;SDS011;19087;51.062;3.754;2023-08-07T00:32:34;0.20;;;0.20;;
32697;SDS011;19087;51.062;3.754;2023-08-07T00:35:00;0.20;;;0.20;;
32697;SDS011;19087;51.062;3.754;2023-08-07T00:37:25;0.20;;;0.20;;
32697;SDS011;19087;51.062;3.754;2023-08-07T00:39:53;0.20;;;0.20;;
32697;SDS011;19087;51.062;3.754;2023-08-07T00:42:20;0.20;;;0.20;;
32697;SDS011;19087;51.062;3.754;2023-08-07T00:44:48;0.20;;;0.20;;
32697;SDS011;19087;51.062;3.754;2023-08-07T00:47:16;0.30;;;0.30;;
32697;SDS011;19087;51.062;3.754;2023-08-07T00:49:41;0.20;;;0.20;;
32697;SDS011;19087;51.062;3.754;2023-08-07T00:52:13;0.20;;;0.20;;
32697;SDS011;19087;51.062;3.754;2023-08-07T00:54:39;0.20;;;0.20;;
32697;SDS011;19087;51.062;3.754;2023-08-07T00:57:12;0.20;;;0.20;;
32697;SDS011;19087;51.062;3.754;2023-08-07T00:59:42;0.20;;;0.20;;
32697;SDS011;19087;51.062;3.754;2023-08-07T01:02:12;0.10;;;0.10;;
32697;SDS011;19087;51.062;3.754;2023-08-07T01:04:40;0.20;;;0.20;;
32697;SDS011;19087;51.062;3.754;2023-08-07T01:07:06;0.20;;;0.20;;
32697;SDS011;19087;51.062;3.754;2023-08-07T01:09:33;0.20;;;0.20;;
32697;SDS011;19087;51.062;3.754;2023-08-07T01:15:14;0.28;;;0.28;;
32697;SDS011;19087;51.062;3.754;2023-08-07T01:17:51;0.20;;;0.20;;
32697;SDS011;19087;51.062;3.754;2023-08-07T01:20:18;0.20;;;0.20;;
32697;SDS011;19087;51.062;3.754;2023-08-07T01:23:07;0.20;;;0.20;;
32697;SDS011;19087;51.062;3.754;2023-08-07T01:25:37;0.20;;;0.20;;
32697;SDS011;19087;51.062;3.754;2023-08-07T01:28:29;0.30;;;0.30;;
32697;SDS011;19087;51.062;3.754;2023-08-07T01:31:02;0.10;;;0.10;;
32697;SDS011;19087;51.062;3.754;2023-08-07T01:33:55;0.30;;;0.30;;
32697;SDS011;19087;51.062;3.754;2023-08-07T01:36:31;0.22;;;0.22;;
32697;SDS011;19087;51.062;3.754;2023-08-07T01:39:02;0.20;;;0.20;;
32697;SDS011;19087;51.062;3.754;2023-08-07T01:41:38;0.20;;;0.20;;
32697;SDS011;19087;51.062;3.754;2023-08-07T01:44:08;0.30;;;0.30;;
32697;SDS011;19087;51.062;3.754;2023-08-07T01:46:35;0.30;;;0.30;;
32697;SDS011;19087;51.062;3.754;2023-08-07T01:49:00;0.20;;;0.20;;
32697;SDS011;19087;51.062;3.754;2023-08-07T01:51:26;0.20;;;0.20;;
32697;SDS011;19087;51.062;3.754;2023-08-07T01:53:53;0.20;;;0.20;;
32697;SDS011;19087;51.062;3.754;2023-08-07T01:56:19;0.20;;;0.20;;
32697;SDS011;19087;51.062;3.754;2023-08-07T01:58:44;0.20;;;0.20;;
32697;SDS011;19087;51.062;3.754;2023-08-07T02:01:10;0.20;;;0.20;;
32697;SDS011;19087;51.062;3.754;2023-08-07T02:03:37;0.22;;;0.22;;
32697;SDS011;19087;51.062;3.754;2023-08-07T02:06:05;0.20;;;0.20;;
32697;SDS011;19087;51.062;3.754;2023-08-07T02:08:30;0.30;;;0.30;;
32697;SDS011;19087;51.062;3.754;2023-08-07T02:10:56;0.22;;;0.22;;
32697;SDS011;19087;51.062;3.754;2023-08-07T02:13:22;0.20;;;0.20;;
32697;SDS011;19087;51.062;3.754;2023-08-07T02:15:48;0.20;;;0.20;;
32697;SDS011;19087;51.062;3.754;2023-08-07T02:18:14;0.28;;;0.28;;
32697;SDS011;19087;51.062;3.754;2023-08-07T02:20:41;0.20;;;0.20;;
32697;SDS011;19087;51.062;3.754;2023-08-07T02:23:07;0.20;;;0.20;;
32697;SDS011;19087;51.062;3.754;2023-08-07T02:25:32;0.10;;;0.10;;
32697;SDS011;19087;51.062;3.754;2023-08-07T02:28:00;0.30;;;0.30;;
32697;SDS011;19087;51.062;3.754;2023-08-07T02:30:27;0.20;;;0.20;;
32697;SDS011;19087;51.062;3.754;2023-08-07T02:32:54;0.20;;;0.20;;
32697;SDS011;19087;51.062;3.754;2023-08-07T02:35:20;0.20;;;0.20;;
32697;SDS011;19087;51.062;3.754;2023-08-07T02:37:46;0.20;;;0.20;;
32697;SDS011;19087;51.062;3.754;2023-08-07T02:40:11;0.20;;;0.20;;
32697;SDS011;19087;51.062;3.754;2023-08-07T02:42:40;0.20;;;0.20;;
32697;SDS011;19087;51.062;3.754;2023-08-07T02:45:07;0.20;;;0.20;;
32697;SDS011;19087;51.062;3.754;2023-08-07T02:47:33;0.20;;;0.20;;
32697;SDS011;19087;51.062;3.754;2023-08-07T02:50:00;0.20;;;0.20;;
32697;SDS011;19087;51.062;3.754;2023-08-07T02:52:27;0.30;;;0.30;;
32697;SDS011;19087;51.062;3.754;2023-08-07T02:54:54;0.20;;;0.20;;
32697;SDS011;19087;51.062;3.754;2023-08-07T02:57:19;0.20;;;0.20;;
32697;SDS011;19087;51.062;3.754;2023-08-07T02:59:45;0.22;;;0.22;;
32697;SDS011;19087;51.062;3.754;2023-08-07T03:02:11;0.20;;;0.20;;
32697;SDS011;19087;51.062;3.754;2023-08-07T03:04:37;0.20;;;0.20;;
32697;SDS011;19087;51.062;3.754;2023-08-07T03:07:02;0.20;;;0.20;;
32697;SDS011;19087;51.062;3.754;2023-08-07T03:09:29;0.20;;;0.20;;
32697;SDS011;19087;51.062;3.754;2023-08-07T03:11:55;0.20;;;0.20;;
32697;SDS011;19087;51.062;3.754;2023-08-07T03:14:23;0.20;;;0.20;;
32697;SDS011;19087;51.062;3.754;2023-08-07T03:16:49;0.20;;;0.20;;
32697;SDS011;19087;51.062;3.754;2023-08-07T03:19:15;0.20;;;0.20;;
32697;SDS011;19087;51.062;3.754;2023-08-07T03:21:43;0.20;;;0.20;;
32697;SDS011;19087;51.062;3.754;2023-08-07T03:24:09;0.20;;;0.20;;
32697;SDS011;19087;51.062;3.754;2023-08-07T03:26:36;0.20;;;0.20;;
32697;SDS011;19087;51.062;3.754;2023-08-07T03:29:02;0.28;;;0.28;;
32697;SDS011;19087;51.062;3.754;2023-08-07T03:31:28;0.20;;;0.20;;
32697;SDS011;19087;51.062;3.754;2023-08-07T03:33:54;0.20;;;0.20;;
32697;SDS011;19087;51.062;3.754;2023-08-07T03:36:20;0.20;;;0.20;;
32697;SDS011;19087;51.062;3.754;2023-08-07T03:41:15;0.20;;;0.20;;
32697;SDS011;19087;51.062;3.754;2023-08-07T03:43:41;0.20;;;0.20;;
32697;SDS011;19087;51.062;3.754;2023-08-07T03:46:07;0.20;;;0.20;;
32697;SDS011;19087;51.062;3.754;2023-08-07T03:48:33;0.20;;;0.20;;
32697;SDS011;19087;51.062;3.754;2023-08-07T03:51:03;0.20;;;0.20;;
32697;SDS011;19087;51.062;3.754;2023-08-07T03:53:40;0.20;;;0.20;;
32697;SDS011;19087;51.062;3.754;2023-08-07T04:02:02;0.20;;;0.20;;
32697;SDS011;19087;51.062;3.754;2023-08-07T04:07:01;0.20;;;0.20;;
32697;SDS011;19087;51.062;3.754;2023-08-07T04:09:31;0.20;;;0.20;;
32697;SDS011;19087;51.062;3.754;2023-08-07T04:11:58;0.20;;;0.20;;
32697;SDS011;19087;51.062;3.754;2023-08-07T04:14:27;0.20;;;0.20;;
32697;SDS011;19087;51.062;3.754;2023-08-07T04:16:55;0.20;;;0.20;;
32697;SDS011;19087;51.062;3.754;2023-08-07T04:19:21;0.20;;;0.20;;
32697;SDS011;19087;51.062;3.754;2023-08-07T04:21:47;0.28;;;0.28;;
32697;SDS011;19087;51.062;3.754;2023-08-07T04:24:13;0.25;;;0.25;;
32697;SDS011;19087;51.062;3.754;2023-08-07T04:26:39;0.20;;;0.20;;
32697;SDS011;19087;51.062;3.754;2023-08-07T04:29:05;0.20;;;0.20;;
32697;SDS011;19087;51.062;3.754;2023-08-07T04:31:30;0.20;;;0.20;;
32697;SDS011;19087;51.062;3.754;2023-08-07T04:33:57;0.20;;;0.20;;
32697;SDS011;19087;51.062;3.754;2023-08-07T04:36:23;0.30;;;0.30;;
32697;SDS011;19087;51.062;3.754;2023-08-07T04:38:49;0.20;;;0.20;;
32697;SDS011;19087;51.062;3.754;2023-08-07T04:41:15;0.30;;;0.30;;
32697;SDS011;19087;51.062;3.754;2023-08-07T04:43:42;0.20;;;0.20;;
32697;SDS011;19087;51.062;3.754;2023-08-07T04:46:09;0.20;;;0.20;;
32697;SDS011;19087;51.062;3.754;2023-08-07T04:48:35;0.20;;;0.20;;
32697;SDS011;19087;51.062;3.754;2023-08-07T04:51:01;0.20;;;0.20;;
32697;SDS011;19087;51.062;3.754;2023-08-07T04:53:29;0.15;;;0.15;;
32697;SDS011;19087;51.062;3.754;2023-08-07T04:56:01;0.20;;;0.20;;
32697;SDS011;19087;51.062;3.754;2023-08-07T04:58:27;0.22;;;0.22;;
32697;SDS011;19087;51.062;3.754;2023-08-07T05:00:56;0.20;;;0.20;;
32697;SDS011;19087;51.062;3.754;2023-08-07T05:03:23;0.20;;;0.20;;
32697;SDS011;19087;51.062;3.754;2023-08-07T05:05:49;0.30;;;0.30;;
32697;SDS011;19087;51.062;3.754;2023-08-07T05:08:16;0.20;;;0.20;;
32697;SDS011;19087;51.062;3.754;2023-08-07T05:10:42;0.20;;;0.20;;
32697;SDS011;19087;51.062;3.754;2023-08-07T05:13:07;0.20;;;0.20;;
32697;SDS011;19087;51.062;3.754;2023-08-07T05:15:33;0.20;;;0.20;;
32697;SDS011;19087;51.062;3.754;2023-08-07T05:18:03;0.20;;;0.20;;
32697;SDS011;19087;51.062;3.754;2023-08-07T05:20:30;0.20;;;0.20;;
32697;SDS011;19087;51.062;3.754;2023-08-07T05:22:56;0.30;;;0.30;;
32697;SDS011;19087;51.062;3.754;2023-08-07T05:25:23;0.20;;;0.20;;
32697;SDS011;19087;51.062;3.754;2023-08-07T05:27:48;0.20;;;0.20;;
32697;SDS011;19087;51.062;3.754;2023-08-07T05:30:16;0.20;;;0.20;;
32697;SDS011;19087;51.062;3.754;2023-08-07T05:32:42;0.30;;;0.30;;
32697;SDS011;19087;51.062;3.754;2023-08-07T05:35:08;0.20;;;0.20;;
32697;SDS011;19087;51.062;3.754;2023-08-07T05:37:34;0.20;;;0.20;;
32697;SDS011;19087;51.062;3.754;2023-08-07T05:40:01;0.20;;;0.20;;
32697;SDS011;19087;51.062;3.754;2023-08-07T05:42:28;0.20;;;0.20;;
32697;SDS011;19087;51.062;3.754;2023-08-07T05:44:54;0.20;;;0.20;;
32697;SDS011;19087;51.062;3.754;2023-08-07T05:47:20;0.20;;;0.20;;
32697;SDS011;19087;51.062;3.754;2023-08-07T05:49:46;0.15;;;0.15;;
32697;SDS011;19087;51.062;3.754;2023-08-07T05:52:13;0.20;;;0.20;;
32697;SDS011;19087;51.062;3.754;2023-08-07T05:54:39;0.22;;;0.22;;
32697;SDS011;19087;51.062;3.754;2023-08-07T05:57:07;0.28;;;0.28;;
32697;SDS011;19087;51.062;3.754;2023-08-07T05:59:33;0.20;;;0.20;;
32697;SDS011;19087;51.062;3.754;2023-08-07T06:01:59;0.20;;;0.20;;
32697;SDS011;19087;51.062;3.754;2023-08-07T06:04:27;0.20;;;0.20;;
32697;SDS011;19087;51.062;3.754;2023-08-07T06:06:53;0.15;;;0.15;;
32697;SDS011;19087;51.062;3.754;2023-08-07T06:09:19;0.20;;;0.20;;
32697;SDS011;19087;51.062;3.754;2023-08-07T06:11:48;0.30;;;0.30;;
32697;SDS011;19087;51.062;3.754;2023-08-07T06:14:15;0.20;;;0.20;;
32697;SDS011;19087;51.062;3.754;2023-08-07T06:16:41;0.10;;;0.10;;
32697;SDS011;19087;51.062;3.754;2023-08-07T06:19:08;0.20;;;0.20;;
32697;SDS011;19087;51.062;3.754;2023-08-07T06:21:34;0.20;;;0.20;;
32697;SDS011;19087;51.062;3.754;2023-08-07T06:26:28;0.10;;;0.10;;
32697;SDS011;19087;51.062;3.754;2023-08-07T06:28:54;0.20;;;0.20;;
32697;SDS011;19087;51.062;3.754;2023-08-07T06:31:20;0.20;;;0.20;;
32697;SDS011;19087;51.062;3.754;2023-08-07T06:33:45;0.10;;;0.10;;
32697;SDS011;19087;51.062;3.754;2023-08-07T06:36:11;0.10;;;0.10;;
32697;SDS011;19087;51.062;3.754;2023-08-07T06:38:41;0.10;;;0.10;;
32697;SDS011;19087;51.062;3.754;2023-08-07T06:41:07;0.00;;;0.00;;
32697;SDS011;19087;51.062;3.754;2023-08-07T06:43:34;0.10;;;0.10;;
32697;SDS011;19087;51.062;3.754;2023-08-07T06:46:00;0.00;;;0.00;;
32697;SDS011;19087;51.062;3.754;2023-08-07T06:48:26;0.00;;;0.00;;
32697;SDS011;19087;51.062;3.754;2023-08-07T06:50:52;0.00;;;0.00;;
32697;SDS011;19087;51.062;3.754;2023-08-07T06:53:19;0.00;;;0.00;;
32697;SDS011;19087;51.062;3.754;2023-08-07T06:55:45;0.00;;;0.00;;
32697;SDS011;19087;51.062;3.754;2023-08-07T06:58:11;0.00;;;0.00;;
32697;SDS011;19087;51.062;3.754;2023-08-07T07:00:37;0.00;;;0.00;;
32697;SDS011;19087;51.062;3.754;2023-08-07T07:03:03;0.00;;;0.00;;
32697;SDS011;19087;51.062;3.754;2023-08-07T07:05:29;0.00;;;0.00;;
32697;SDS011;19087;51.062;3.754;2023-08-07T07:07:56;0.00;;;0.00;;
32697;SDS011;19087;51.062;3.754;2023-08-07T07:10:22;0.05;;;0.05;;
32697;SDS011;19087;51.062;3.754;2023-08-07T07:12:48;0.00;;;0.00;;
32697;SDS011;19087;51.062;3.754;2023-08-07T07:15:14;0.00;;;0.00;;
32697;SDS011;19087;51.062;3.754;2023-08-07T07:17:40;0.05;;;0.05;;
32697;SDS011;19087;51.062;3.754;2023-08-07T07:20:06;0.00;;;0.00;;
32697;SDS011;19087;51.062;3.754;2023-08-07T07:25:03;0.00;;;0.00;;
32697;SDS011;19087;51.062;3.754;2023-08-07T07:27:30;0.00;;;0.00;;
32697;SDS011;19087;51.062;3.754;2023-08-07T07:29:56;0.00;;;0.00;;
32697;SDS011;19087;51.062;3.754;2023-08-07T07:32:22;0.00;;;0.00;;
32697;SDS011;19087;51.062;3.754;2023-08-07T07:34:48;0.05;;;0.05;;
32697;SDS011;19087;51.062;3.754;2023-08-07T07:37:14;0.10;;;0.10;;
32697;SDS011;19087;51.062;3.754;2023-08-07T07:39:41;0.00;;;0.00;;
32697;SDS011;19087;51.062;3.754;2023-08-07T07:42:07;0.00;;;0.00;;
32697;SDS011;19087;51.062;3.754;2023-08-07T07:44:34;0.08;;;0.08;;
32697;SDS011;19087;51.062;3.754;2023-08-07T07:47:04;0.00;;;0.00;;
32697;SDS011;19087;51.062;3.754;2023-08-07T07:49:32;0.00;;;0.00;;
32697;SDS011;19087;51.062;3.754;2023-08-07T07:51:59;0.00;;;0.00;;
32697;SDS011;19087;51.062;3.754;2023-08-07T07:54:25;0.00;;;0.00;;
32697;SDS011;19087;51.062;3.754;2023-08-07T07:56:53;0.00;;;0.00;;
32697;SDS011;19087;51.062;3.754;2023-08-07T07:59:19;0.00;;;0.00;;
32697;SDS011;19087;51.062;3.754;2023-08-07T08:01:48;0.00;;;0.00;;
32697;SDS011;19087;51.062;3.754;2023-08-07T08:04:14;0.03;;;0.03;;
32697;SDS011;19087;51.062;3.754;2023-08-07T08:06:40;0.00;;;0.00;;
32697;SDS011;19087;51.062;3.754;2023-08-07T08:09:07;0.00;;;0.00;;
32697;SDS011;19087;51.062;3.754;2023-08-07T08:11:34;0.00;;;0.00;;
32697;SDS011;19087;51.062;3.754;2023-08-07T08:14:00;0.00;;;0.00;;
32697;SDS011;19087;51.062;3.754;2023-08-07T08:16:26;0.00;;;0.00;;
32697;SDS011;19087;51.062;3.754;2023-08-07T08:18:52;0.00;;;0.00;;
32697;SDS011;19087;51.062;3.754;2023-08-07T08:21:18;0.00;;;0.00;;
32697;SDS011;19087;51.062;3.754;2023-08-07T08:23:44;0.00;;;0.00;;
32697;SDS011;19087;51.062;3.754;2023-08-07T08:26:10;0.00;;;0.00;;
32697;SDS011;19087;51.062;3.754;2023-08-07T08:28:37;0.00;;;0.00;;
32697;SDS011;19087;51.062;3.754;2023-08-07T08:31:03;0.00;;;0.00;;
32697;SDS011;19087;51.062;3.754;2023-08-07T08:33:31;0.00;;;0.00;;
32697;SDS011;19087;51.062;3.754;2023-08-07T08:35:57;0.00;;;0.00;;
32697;SDS011;19087;51.062;3.754;2023-08-07T08:38:22;0.00;;;0.00;;
32697;SDS011;19087;51.062;3.754;2023-08-07T08:40:49;0.00;;;0.00;;
32697;SDS011;19087;51.062;3.754;2023-08-07T08:43:17;0.10;;;0.10;;
32697;SDS011;19087;51.062;3.754;2023-08-07T08:45:44;0.08;;;0.08;;
32697;SDS011;19087;51.062;3.754;2023-08-07T08:48:11;0.00;;;0.00;;
32697;SDS011;19087;51.062;3.754;2023-08-07T08:50:43;0.00;;;0.00;;
32697;SDS011;19087;51.062;3.754;2023-08-07T08:53:10;0.00;;;0.00;;
32697;SDS011;19087;51.062;3.754;2023-08-07T08:55:37;0.00;;;0.00;;
32697;SDS011;19087;51.062;3.754;2023-08-07T08:58:03;0.00;;;0.00;;
32697;SDS011;19087;51.062;3.754;2023-08-07T09:00:32;0.00;;;0.00;;
32697;SDS011;19087;51.062;3.754;2023-08-07T09:03:00;0.00;;;0.00;;
32697;SDS011;19087;51.062;3.754;2023-08-07T09:05:28;0.00;;;0.00;;
32697;SDS011;19087;51.062;3.754;2023-08-07T09:07:54;0.00;;;0.00;;
32697;SDS011;19087;51.062;3.754;2023-08-07T09:10:21;0.00;;;0.00;;
32697;SDS011;19087;51.062;3.754;2023-08-07T09:12:53;0.00;;;0.00;;
32697;SDS011;19087;51.062;3.754;2023-08-07T09:15:30;0.00;;;0.00;;
32697;SDS011;19087;51.062;3.754;2023-08-07T09:17:59;0.00;;;0.00;;
32697;SDS011;19087;51.062;3.754;2023-08-07T09:20:29;0.00;;;0.00;;
32697;SDS011;19087;51.062;3.754;2023-08-07T09:22:55;0.00;;;0.00;;
32697;SDS011;19087;51.062;3.754;2023-08-07T09:25:28;0.10;;;0.10;;
32697;SDS011;19087;51.062;3.754;2023-08-07T09:27:56;0.00;;;0.00;;
32697;SDS011;19087;51.062;3.754;2023-08-07T09:30:25;0.08;;;0.08;;
32697;SDS011;19087;51.062;3.754;2023-08-07T09:32:56;0.08;;;0.08;;
32697;SDS011;19087;51.062;3.754;2023-08-07T09:35:24;0.10;;;0.10;;
32697;SDS011;19087;51.062;3.754;2023-08-07T09:37:50;0.10;;;0.10;;
32697;SDS011;19087;51.062;3.754;2023-08-07T09:40:16;0.10;;;0.10;;
32697;SDS011;19087;51.062;3.754;2023-08-07T09:42:44;0.10;;;0.10;;
32697;SDS011;19087;51.062;3.754;2023-08-07T09:45:23;0.10;;;0.10;;
32697;SDS011;19087;51.062;3.754;2023-08-07T09:47:59;0.10;;;0.10;;
32697;SDS011;19087;51.062;3.754;2023-08-07T09:50:33;0.10;;;0.10;;
32697;SDS011;19087;51.062;3.754;2023-08-07T09:53:00;0.10;;;0.10;;
32697;SDS011;19087;51.062;3.754;2023-08-07T09:55:26;0.08;;;0.08;;
32697;SDS011;19087;51.062;3.754;2023-08-07T09:57:54;0.10;;;0.10;;
32697;SDS011;19087;51.062;3.754;2023-08-07T10:00:20;0.10;;;0.10;;
32697;SDS011;19087;51.062;3.754;2023-08-07T10:02:47;0.00;;;0.00;;
32697;SDS011;19087;51.062;3.754;2023-08-07T10:05:14;0.10;;;0.10;;
32697;SDS011;19087;51.062;3.754;2023-08-07T10:07:41;0.10;;;0.10;;
32697;SDS011;19087;51.062;3.754;2023-08-07T10:10:08;0.10;;;0.10;;
32697;SDS011;19087;51.062;3.754;2023-08-07T10:12:35;0.00;;;0.00;;
32697;SDS011;19087;51.062;3.754;2023-08-07T10:15:03;0.10;;;0.10;;
32697;SDS011;19087;51.062;3.754;2023-08-07T10:17:33;0.10;;;0.10;;
32697;SDS011;19087;51.062;3.754;2023-08-07T10:19:59;0.10;;;0.10;;
32697;SDS011;19087;51.062;3.754;2023-08-07T10:22:29;0.10;;;0.10;;
32697;SDS011;19087;51.062;3.754;2023-08-07T10:24:56;0.00;;;0.00;;
32697;SDS011;19087;51.062;3.754;2023-08-07T10:27:25;0.10;;;0.10;;
32697;SDS011;19087;51.062;3.754;2023-08-07T10:29:55;0.10;;;0.10;;
32697;SDS011;19087;51.062;3.754;2023-08-07T10:32:26;0.10;;;0.10;;
32697;SDS011;19087;51.062;3.754;2023-08-07T10:34:54;0.10;;;0.10;;
32697;SDS011;19087;51.062;3.754;2023-08-07T10:40:09;0.10;;;0.10;;
32697;SDS011;19087;51.062;3.754;2023-08-07T10:45:18;0.10;;;0.10;;
32697;SDS011;19087;51.062;3.754;2023-08-07T10:53:29;0.10;;;0.10;;
32697;SDS011;19087;51.062;3.754;2023-08-07T10:56:03;0.10;;;0.10;;
32697;SDS011;19087;51.062;3.754;2023-08-07T10:58:33;0.05;;;0.05;;
32697;SDS011;19087;51.062;3.754;2023-08-07T11:03:54;0.00;;;0.00;;
32697;SDS011;19087;51.062;3.754;2023-08-07T11:06:30;0.10;;;0.10;;
32697;SDS011;19087;51.062;3.754;2023-08-07T11:08:58;0.10;;;0.10;;
32697;SDS011;19087;51.062;3.754;2023-08-07T11:14:12;0.10;;;0.10;;
32697;SDS011;19087;51.062;3.754;2023-08-07T11:16:39;0.10;;;0.10;;
32697;SDS011;19087;51.062;3.754;2023-08-07T11:19:06;0.00;;;0.00;;
32697;SDS011;19087;51.062;3.754;2023-08-07T11:21:34;0.10;;;0.10;;
32697;SDS011;19087;51.062;3.754;2023-08-07T11:24:02;0.10;;;0.10;;
32697;SDS011;19087;51.062;3.754;2023-08-07T11:26:28;0.10;;;0.10;;
32697;SDS011;19087;51.062;3.754;2023-08-07T11:28:55;0.08;;;0.08;;
32697;SDS011;19087;51.062;3.754;2023-08-07T11:31:21;0.10;;;0.10;;
32697;SDS011;19087;51.062;3.754;2023-08-07T11:33:54;0.00;;;0.00;;
32697;SDS011;19087;51.062;3.754;2023-08-07T11:36:22;0.00;;;0.00;;
32697;SDS011;19087;51.062;3.754;2023-08-07T11:38:50;0.10;;;0.10;;
32697;SDS011;19087;51.062;3.754;2023-08-07T11:41:17;0.00;;;0.00;;
32697;SDS011;19087;51.062;3.754;2023-08-07T11:43:43;0.00;;;0.00;;
32697;SDS011;19087;51.062;3.754;2023-08-07T11:46:11;0.00;;;0.00;;
32697;SDS011;19087;51.062;3.754;2023-08-07T11:48:39;0.00;;;0.00;;
32697;SDS011;19087;51.062;3.754;2023-08-07T11:51:06;0.10;;;0.10;;
32697;SDS011;19087;51.062;3.754;2023-08-07T11:53:36;0.10;;;0.10;;
32697;SDS011;19087;51.062;3.754;2023-08-07T11:56:07;0.00;;;0.00;;
32697;SDS011;19087;51.062;3.754;2023-08-07T11:58:35;0.10;;;0.10;;
32697;SDS011;19087;51.062;3.754;2023-08-07T12:01:13;0.08;;;0.08;;
32697;SDS011;19087;51.062;3.754;2023-08-07T12:06:35;0.10;;;0.10;;
32697;SDS011;19087;51.062;3.754;2023-08-07T12:09:02;0.00;;;0.00;;
32697;SDS011;19087;51.062;3.754;2023-08-07T12:11:35;0.10;;;0.10;;
32697;SDS011;19087;51.062;3.754;2023-08-07T12:14:01;0.10;;;0.10;;
32697;SDS011;19087;51.062;3.754;2023-08-07T12:16:31;0.05;;;0.05;;
32697;SDS011;19087;51.062;3.754;2023-08-07T12:19:00;0.00;;;0.00;;
32697;SDS011;19087;51.062;3.754;2023-08-07T12:21:29;0.00;;;0.00;;
32697;SDS011;19087;51.062;3.754;2023-08-07T12:23:58;0.00;;;0.00;;
32697;SDS011;19087;51.062;3.754;2023-08-07T12:26:25;0.10;;;0.10;;
32697;SDS011;19087;51.062;3.754;2023-08-07T12:28:51;0.10;;;0.10;;
32697;SDS011;19087;51.062;3.754;2023-08-07T12:31:18;0.00;;;0.00;;
32697;SDS011;19087;51.062;3.754;2023-08-07T12:33:50;0.00;;;0.00;;
32697;SDS011;19087;51.062;3.754;2023-08-07T12:36:17;0.00;;;0.00;;
32697;SDS011;19087;51.062;3.754;2023-08-07T12:38:42;0.00;;;0.00;;
32697;SDS011;19087;51.062;3.754;2023-08-07T12:41:08;0.00;;;0.00;;
32697;SDS011;19087;51.062;3.754;2023-08-07T12:43:39;0.10;;;0.10;;
32697;SDS011;19087;51.062;3.754;2023-08-07T12:46:11;0.08;;;0.08;;
32697;SDS011;19087;51.062;3.754;2023-08-07T12:48:37;0.00;;;0.00;;
32697;SDS011;19087;51.062;3.754;2023-08-07T12:51:04;0.10;;;0.10;;
32697;SDS011;19087;51.062;3.754;2023-08-07T12:53:29;0.05;;;0.05;;
32697;SDS011;19087;51.062;3.754;2023-08-07T12:55:56;0.10;;;0.10;;
32697;SDS011;19087;51.062;3.754;2023-08-07T12:58:22;0.10;;;0.10;;
32697;SDS011;19087;51.062;3.754;2023-08-07T13:00:50;0.10;;;0.10;;
32697;SDS011;19087;51.062;3.754;2023-08-07T13:03:17;0.00;;;0.00;;
32697;SDS011;19087;51.062;3.754;2023-08-07T13:05:54;0.10;;;0.10;;
32697;SDS011;19087;51.062;3.754;2023-08-07T13:08:24;0.05;;;0.05;;
32697;SDS011;19087;51.062;3.754;2023-08-07T13:13:23;0.10;;;0.10;;
32697;SDS011;19087;51.062;3.754;2023-08-07T13:15:51;0.10;;;0.10;;
32697;SDS011;19087;51.062;3.754;2023-08-07T13:18:19;0.00;;;0.00;;
32697;SDS011;19087;51.062;3.754;2023-08-07T13:20:45;0.10;;;0.10;;
32697;SDS011;19087;51.062;3.754;2023-08-07T13:23:14;0.00;;;0.00;;
32697;SDS011;19087;51.062;3.754;2023-08-07T13:25:51;0.00;;;0.00;;
32697;SDS011;19087;51.062;3.754;2023-08-07T13:28:21;0.10;;;0.10;;
32697;SDS011;19087;51.062;3.754;2023-08-07T13:30:48;0.10;;;0.10;;
32697;SDS011;19087;51.062;3.754;2023-08-07T13:33:22;0.10;;;0.10;;
32697;SDS011;19087;51.062;3.754;2023-08-07T13:35:49;0.00;;;0.00;;
32697;SDS011;19087;51.062;3.754;2023-08-07T13:38:17;0.10;;;0.10;;
32697;SDS011;19087;51.062;3.754;2023-08-07T13:40:53;0.10;;;0.10;;
32697;SDS011;19087;51.062;3.754;2023-08-07T13:43:20;0.10;;;0.10;;
32697;SDS011;19087;51.062;3.754;2023-08-07T13:45:47;0.00;;;0.00;;
32697;SDS011;19087;51.062;3.754;2023-08-07T13:50:47;0.10;;;0.10;;
32697;SDS011;19087;51.062;3.754;2023-08-07T13:56:04;0.10;;;0.10;;
32697;SDS011;19087;51.062;3.754;2023-08-07T13:58:37;0.10;;;0.10;;
32697;SDS011;19087;51.062;3.754;2023-08-07T14:01:03;0.08;;;0.08;;
32697;SDS011;19087;51.062;3.754;2023-08-07T14:03:30;0.00;;;0.00;;
32697;SDS011;19087;51.062;3.754;2023-08-07T14:05:57;0.10;;;0.10;;
32697;SDS011;19087;51.062;3.754;2023-08-07T14:11:10;0.07;;;0.07;;
32697;SDS011;19087;51.062;3.754;2023-08-07T14:13:46;0.00;;;0.00;;
32697;SDS011;19087;51.062;3.754;2023-08-07T14:16:12;0.03;;;0.03;;
32697;SDS011;19087;51.062;3.754;2023-08-07T14:18:38;0.10;;;0.10;;
32697;SDS011;19087;51.062;3.754;2023-08-07T14:21:04;0.00;;;0.00;;
32697;SDS011;19087;51.062;3.754;2023-08-07T14:23:30;0.10;;;0.10;;
32697;SDS011;19087;51.062;3.754;2023-08-07T14:25:57;0.00;;;0.00;;
32697;SDS011;19087;51.062;3.754;2023-08-07T14:28:23;0.10;;;0.10;;
32697;SDS011;19087;51.062;3.754;2023-08-07T14:30:49;0.10;;;0.10;;
32697;SDS011;19087;51.062;3.754;2023-08-07T14:33:14;0.10;;;0.10;;
32697;SDS011;19087;51.062;3.754;2023-08-07T14:35:42;0.10;;;0.10;;
32697;SDS011;19087;51.062;3.754;2023-08-07T14:38:10;0.10;;;0.10;;
32697;SDS011;19087;51.062;3.754;2023-08-07T14:40:36;0.10;;;0.10;;
32697;SDS011;19087;51.062;3.754;2023-08-07T14:43:06;0.00;;;0.00;;
32697;SDS011;19087;51.062;3.754;2023-08-07T14:48:04;0.00;;;0.00;;
32697;SDS011;19087;51.062;3.754;2023-08-07T14:50:31;0.10;;;0.10;;
32697;SDS011;19087;51.062;3.754;2023-08-07T14:52:58;0.10;;;0.10;;
32697;SDS011;19087;51.062;3.754;2023-08-07T14:55:25;0.08;;;0.08;;
32697;SDS011;19087;51.062;3.754;2023-08-07T14:57:52;0.10;;;0.10;;
32697;SDS011;19087;51.062;3.754;2023-08-07T15:00:18;0.10;;;0.10;;
32697;SDS011;19087;51.062;3.754;2023-08-07T15:02:46;0.10;;;0.10;;
32697;SDS011;19087;51.062;3.754;2023-08-07T15:05:13;0.10;;;0.10;;
32697;SDS011;19087;51.062;3.754;2023-08-07T15:07:40;0.03;;;0.03;;
32697;SDS011;19087;51.062;3.754;2023-08-07T15:10:07;0.10;;;0.10;;
32697;SDS011;19087;51.062;3.754;2023-08-07T15:12:35;0.10;;;0.10;;
32697;SDS011;19087;51.062;3.754;2023-08-07T15:15:03;0.08;;;0.08;;
32697;SDS011;19087;51.062;3.754;2023-08-07T15:17:30;0.08;;;0.08;;
32697;SDS011;19087;51.062;3.754;2023-08-07T15:19:56;0.10;;;0.10;;
32697;SDS011;19087;51.062;3.754;2023-08-07T15:22:22;0.10;;;0.10;;
32697;SDS011;19087;51.062;3.754;2023-08-07T15:24:48;0.10;;;0.10;;
32697;SDS011;19087;51.062;3.754;2023-08-07T15:27:14;0.10;;;0.10;;
32697;SDS011;19087;51.062;3.754;2023-08-07T15:29:40;0.10;;;0.10;;
32697;SDS011;19087;51.062;3.754;2023-08-07T15:32:11;0.10;;;0.10;;
32697;SDS011;19087;51.062;3.754;2023-08-07T15:34:39;0.10;;;0.10;;
32697;SDS011;19087;51.062;3.754;2023-08-07T15:37:05;0.00;;;0.00;;
32697;SDS011;19087;51.062;3.754;2023-08-07T15:39:31;0.10;;;0.10;;
32697;SDS011;19087;51.062;3.754;2023-08-07T15:41:59;0.10;;;0.10;;
32697;SDS011;19087;51.062;3.754;2023-08-07T15:44:27;0.10;;;0.10;;